Grapeland, Mississippi
Current Conditions -  °F | °C
As of 9:53 AM on Friday 19 Dec 2014 (Local Time) from KGLH Reporting Station
Haze Haze  
Wind Chill: 41°   Ceiling: 4300
Heat Index: 46°   Visibility: 6mi
Dew Point: 41°   Wind: 10mph
Humidity: 83%   Direction: 40°NE
Pressure: 30.24"   Gusts: NA
Location:  33.6504°N, 91.0785°W
Report Text: KGLH 191553Z AUTO 04009KT 6SM HZ SCT031 OVC043 08/05 A3024 RMK AO2 SLP249 T00780050
Loading
Personal Weather Stations






























Interactive Weather Map New forecast layout! Learn more

10-Day Weather Forecast

Advertisements
Track Severe Weather on mobile